createdAt,value
2022-11-06T00:01:10.274Z,18.1
2022-11-06T00:11:10.202Z,17.9
2022-11-06T00:21:10.276Z,17.7
2022-11-06T00:31:10.617Z,18
2022-11-06T00:41:10.662Z,18
2022-11-06T00:51:10.382Z,18
2022-11-06T01:01:10.266Z,17.8
2022-11-06T01:11:10.406Z,17.4
2022-11-06T01:21:10.277Z,17.6
2022-11-06T01:31:10.373Z,17.5
2022-11-06T01:41:10.452Z,17.6
2022-11-06T01:51:10.463Z,17.6
2022-11-06T02:01:10.444Z,17.4
2022-11-06T02:11:10.392Z,17.5
2022-11-06T02:21:10.460Z,17.4
2022-11-06T02:31:10.375Z,17.4
2022-11-06T02:41:10.484Z,17.3
2022-11-06T02:51:10.375Z,17.3
2022-11-06T03:01:10.435Z,17.3
2022-11-06T03:11:10.369Z,17.3
2022-11-06T03:21:10.440Z,17.2
2022-11-06T03:31:10.660Z,17.2
2022-11-06T03:41:10.439Z,17.2
2022-11-06T03:51:10.704Z,17.2
2022-11-06T04:01:10.438Z,17.1
2022-11-06T04:11:10.547Z,17.1
2022-11-06T04:21:10.437Z,17
2022-11-06T04:31:10.558Z,17
2022-11-06T04:41:10.634Z,17
2022-11-06T04:51:10.542Z,16.8
2022-11-06T05:01:10.676Z,16.9
2022-11-06T05:11:10.543Z,16.9
2022-11-06T05:21:10.640Z,16.9
2022-11-06T05:31:10.582Z,16.9
2022-11-06T05:41:10.630Z,16.9
2022-11-06T05:51:10.547Z,17
2022-11-06T06:01:10.620Z,19.1
2022-11-06T06:11:10.544Z,18.8
2022-11-06T06:21:10.622Z,18.4
2022-11-06T06:31:10.744Z,18.3
2022-11-06T06:41:10.645Z,17.8
2022-11-06T06:51:10.772Z,17.7
2022-11-06T07:01:10.718Z,17.9
2022-11-06T07:11:10.754Z,19.4
2022-11-06T07:21:10.629Z,19.1
2022-11-06T07:31:10.760Z,18.7
2022-11-06T07:41:10.628Z,18.3
2022-11-06T07:51:10.814Z,18
2022-11-06T08:01:14.118Z,19.4
2022-11-06T08:11:10.785Z,20
2022-11-06T08:21:10.649Z,19.4
2022-11-06T08:31:10.775Z,18.9
2022-11-06T08:41:10.856Z,18.6
2022-11-06T08:51:10.765Z,18.3
2022-11-06T09:01:10.906Z,18.1
2022-11-06T09:11:10.789Z,17.9
2022-11-06T09:21:10.887Z,17.7
2022-11-06T09:31:10.776Z,17.6
2022-11-06T09:41:10.851Z,17.6
2022-11-06T09:51:10.776Z,17.6
2022-11-06T10:01:12.267Z,17.6
2022-11-06T10:11:10.982Z,17.5
2022-11-06T10:21:10.856Z,17.5
2022-11-06T10:31:11.138Z,17.5
2022-11-06T10:41:10.906Z,17.5
2022-11-06T10:51:11.395Z,17.5
2022-11-06T11:01:10.926Z,17.6
2022-11-06T11:11:10.970Z,17.6
2022-11-06T11:21:10.840Z,17.5
2022-11-06T11:31:10.963Z,17.5
2022-11-06T11:41:11.030Z,17.5
2022-11-06T11:51:10.964Z,17.5
2022-11-06T12:01:11.030Z,17.5
2022-11-06T12:11:12.700Z,17.4
2022-11-06T12:21:11.054Z,17.4
2022-11-06T12:31:10.944Z,17.4
2022-11-06T12:41:11.256Z,17.3
2022-11-06T12:51:10.946Z,17.3
2022-11-06T13:01:11.030Z,17.3
2022-11-06T13:11:11.139Z,17.3
2022-11-06T13:21:11.007Z,17.3
2022-11-06T13:31:11.148Z,17.2
2022-11-06T13:41:11.017Z,17.3
2022-11-06T13:51:11.134Z,17.2
2022-11-06T14:01:11.186Z,17.5
2022-11-06T14:11:11.174Z,19.3
2022-11-06T14:21:11.059Z,19.1
2022-11-06T14:31:13.333Z,18.6
2022-11-06T14:41:11.067Z,18.3
2022-11-06T14:51:11.263Z,18.2
2022-11-06T15:11:11.515Z,17.9
2022-11-06T15:21:11.292Z,17.7
2022-11-06T15:51:11.495Z,17.4
2022-11-06T16:01:11.373Z,17.4
2022-11-06T16:21:11.300Z,17.5
2022-11-06T16:31:11.168Z,17.6
2022-11-06T16:41:11.282Z,17.6
2022-11-06T16:51:11.158Z,17.2
2022-11-06T17:01:14.599Z,17.4
2022-11-06T17:11:11.348Z,17.4
2022-11-06T17:21:11.322Z,17.3
2022-11-06T17:31:11.911Z,17.3
2022-11-06T17:41:11.264Z,17.3
2022-11-06T17:51:11.338Z,17.3
2022-11-06T18:01:11.395Z,17.5
2022-11-06T18:11:11.337Z,19.5
2022-11-06T18:21:11.464Z,19.3
2022-11-06T18:31:11.325Z,18.9
2022-11-06T18:41:11.474Z,18.5
2022-11-06T18:51:11.360Z,18.2
2022-11-06T19:01:11.572Z,18.1
2022-11-06T19:11:11.409Z,17.8
2022-11-06T19:21:11.511Z,17.7
2022-11-06T19:31:11.398Z,18.5
2022-11-06T19:41:11.515Z,19.9
2022-11-06T19:51:11.428Z,19.5
2022-11-06T20:01:11.649Z,19
2022-11-06T20:11:11.429Z,18.7
2022-11-06T20:21:12.103Z,18.4
2022-11-06T20:31:11.601Z,18.2
2022-11-06T20:41:11.539Z,18
2022-11-06T20:51:11.403Z,17.9
2022-11-06T21:01:11.547Z,17.8
2022-11-06T21:11:11.654Z,17.8
2022-11-06T21:21:11.523Z,17.6
2022-11-06T21:31:11.587Z,17.8
2022-11-06T21:41:11.508Z,17.8
2022-11-06T21:51:11.603Z,17.9
2022-11-06T22:01:11.583Z,17.9
2022-11-06T22:11:11.587Z,17.9
2022-11-06T22:21:11.712Z,17.8
2022-11-06T22:31:11.575Z,17.8
2022-11-06T22:41:11.696Z,17.8
2022-11-06T22:51:11.591Z,17.7
2022-11-06T23:01:11.733Z,17.6
2022-11-06T23:11:11.607Z,17.6
2022-11-06T23:21:11.823Z,17.6
2022-11-06T23:31:11.626Z,17.5
2022-11-06T23:41:11.714Z,17.5
2022-11-06T23:51:11.575Z,17.5
